createdAt,value
2023-03-20T00:02:25.698Z,99911.25
2023-03-20T00:04:53.797Z,99907.13
2023-03-20T00:07:21.551Z,99902.19
2023-03-20T00:12:25.687Z,99903.13
2023-03-20T00:14:53.552Z,99897.72
2023-03-20T00:17:21.655Z,99903.72
2023-03-20T00:19:49.654Z,99901.91
2023-03-20T00:22:17.894Z,99902.94
2023-03-20T00:24:45.424Z,99909.63
2023-03-20T00:27:32.801Z,99914.06
2023-03-20T00:30:00.548Z,99917.66
2023-03-20T00:32:30.009Z,99913.81
2023-03-20T00:34:58.734Z,99911.69
2023-03-20T00:37:28.133Z,99910.19
2023-03-20T00:39:58.286Z,99908.34
2023-03-20T00:42:30.626Z,99917.19
2023-03-20T00:46:12.317Z,99922.25
2023-03-20T00:48:49.090Z,99914.91
2023-03-20T00:51:49.876Z,99909.00
2023-03-20T00:54:41.948Z,99905.44
2023-03-20T00:57:42.636Z,99915.53
2023-03-20T01:01:00.996Z,99913.47
2023-03-20T01:04:03.666Z,99908.53
2023-03-20T01:06:50.963Z,99912.19
2023-03-20T01:09:36.060Z,99918.19
2023-03-20T01:12:15.030Z,99914.28
2023-03-20T01:14:54.454Z,99910.97
2023-03-20T01:17:30.006Z,99915.38
2023-03-20T01:20:01.664Z,99917.37
2023-03-20T01:22:30.008Z,99912.94
2023-03-20T01:24:58.390Z,99908.22
2023-03-20T01:27:26.260Z,99905.25
2023-03-20T01:29:53.970Z,99899.25
2023-03-20T01:32:22.128Z,99905.38
2023-03-20T01:34:50.245Z,99906.84
2023-03-20T01:37:23.452Z,99907.53
2023-03-20T01:39:51.843Z,99903.53
2023-03-20T01:42:21.112Z,99900.91
2023-03-20T01:44:50.121Z,99900.94
2023-03-20T01:47:22.106Z,99897.81
2023-03-20T01:50:26.865Z,99905.34
2023-03-20T01:53:13.670Z,99888.09
2023-03-20T01:55:43.855Z,99904.59
2023-03-20T01:58:17.782Z,99904.41
2023-03-20T02:00:49.067Z,99902.87
2023-03-20T02:03:23.634Z,99896.25
2023-03-20T02:05:56.689Z,99892.16
2023-03-20T02:08:30.049Z,99889.38
2023-03-20T02:11:01.133Z,99900.81
2023-03-20T02:13:31.622Z,99898.38
2023-03-20T02:16:04.572Z,99893.59
2023-03-20T02:18:36.267Z,99887.88
2023-03-20T02:21:09.929Z,99890.72
2023-03-20T02:23:48.083Z,99882.22
2023-03-20T02:26:24.502Z,99884.81
2023-03-20T02:29:14.480Z,99886.22
2023-03-20T02:31:46.191Z,99885.06
2023-03-20T02:35:01.448Z,99878.44
2023-03-20T02:37:53.269Z,99890.56
2023-03-20T02:40:27.571Z,99875.91
2023-03-20T02:42:59.663Z,99876.69
2023-03-20T02:45:38.810Z,99874.00
2023-03-20T02:48:19.774Z,99861.44
2023-03-20T02:50:59.590Z,99866.63
2023-03-20T02:53:42.176Z,99867.97
2023-03-20T02:56:34.254Z,99863.47
2023-03-20T02:59:29.805Z,99861.47
2023-03-20T03:02:19.147Z,99872.34
2023-03-20T03:04:57.356Z,99874.13
2023-03-20T03:07:29.063Z,99873.97
2023-03-20T03:10:00.725Z,99872.06
2023-03-20T03:12:41.312Z,99876.03
2023-03-20T03:15:27.222Z,99878.44
2023-03-20T03:17:58.225Z,99886.00
2023-03-20T03:20:39.746Z,99888.78
2023-03-20T03:23:19.703Z,99895.06
2023-03-20T03:25:48.880Z,99895.00
2023-03-20T03:28:19.835Z,99893.31
2023-03-20T03:30:53.969Z,99897.13
2023-03-20T03:33:26.071Z,99895.72
2023-03-20T03:36:03.846Z,99895.53
2023-03-20T03:38:59.442Z,99895.91
2023-03-20T03:41:45.485Z,99900.13
2023-03-20T03:44:20.447Z,99889.69
2023-03-20T03:46:57.401Z,99892.09
2023-03-20T03:49:29.657Z,99898.47
2023-03-20T03:52:05.403Z,99896.75
2023-03-20T03:54:42.604Z,99906.12
2023-03-20T03:57:19.115Z,99904.75
2023-03-20T03:59:50.610Z,99909.37
2023-03-20T04:02:22.383Z,99905.16
2023-03-20T04:04:52.913Z,99906.81
2023-03-20T04:09:57.131Z,99914.91
2023-03-20T04:12:35.438Z,99912.03
2023-03-20T04:15:04.471Z,99913.78
2023-03-20T04:17:44.523Z,99923.53
2023-03-20T04:20:14.734Z,99921.25
2023-03-20T04:22:42.556Z,99920.16
2023-03-20T04:25:18.828Z,99929.84
2023-03-20T04:27:47.485Z,99931.38
2023-03-20T04:30:17.906Z,99923.56
2023-03-20T04:32:50.318Z,99934.38
2023-03-20T04:35:21.604Z,99933.63
2023-03-20T04:37:49.815Z,99923.72
2023-03-20T04:40:19.405Z,99928.47
2023-03-20T04:42:47.270Z,99926.88
2023-03-20T04:45:15.988Z,99921.81
2023-03-20T04:47:44.488Z,99921.25
2023-03-20T04:50:14.071Z,99921.19
2023-03-20T04:52:45.690Z,99915.56
2023-03-20T04:55:16.624Z,99918.09
2023-03-20T04:57:46.255Z,99920.78
2023-03-20T05:00:18.663Z,99923.47
2023-03-20T05:02:47.933Z,99926.28
2023-03-20T05:05:16.762Z,99936.91
2023-03-20T05:07:48.042Z,99934.03
2023-03-20T05:10:17.311Z,99932.06
2023-03-20T05:12:47.677Z,99929.19
2023-03-20T05:15:20.970Z,99935.53
2023-03-20T05:17:52.023Z,99943.34
2023-03-20T05:20:33.559Z,99947.37
2023-03-20T05:25:43.630Z,99950.97
2023-03-20T05:28:15.475Z,99953.66
2023-03-20T05:30:49.093Z,99957.94
2023-03-20T05:33:20.917Z,99951.34
2023-03-20T05:35:51.459Z,99953.94
2023-03-20T05:38:22.887Z,99953.25
2023-03-20T05:41:00.642Z,99955.34
2023-03-20T05:43:38.211Z,99960.53
2023-03-20T05:46:06.917Z,99953.50
2023-03-20T05:48:37.080Z,99961.69
2023-03-20T05:51:06.778Z,99958.03
2023-03-20T05:53:36.954Z,99967.72
2023-03-20T05:56:13.071Z,99969.25
2023-03-20T05:58:45.544Z,99973.41
2023-03-20T06:01:21.700Z,99974.38
2023-03-20T06:03:58.787Z,99968.34
2023-03-20T06:06:28.840Z,99975.09
2023-03-20T06:08:58.368Z,99977.41
2023-03-20T06:11:29.601Z,99976.88
2023-03-20T06:13:59.799Z,99982.94
2023-03-20T06:16:31.917Z,99982.66
2023-03-20T06:19:03.590Z,99984.22
2023-03-20T06:21:40.683Z,99978.50
2023-03-20T06:24:11.341Z,99981.69
2023-03-20T06:26:39.835Z,99975.78
2023-03-20T06:29:12.631Z,99981.31
2023-03-20T06:31:46.651Z,99979.34
2023-03-20T06:34:21.057Z,99988.56
2023-03-20T06:36:49.921Z,99988.59
2023-03-20T06:39:18.632Z,99986.81
2023-03-20T06:41:47.832Z,99979.75
2023-03-20T06:44:17.077Z,99976.16
2023-03-20T06:46:56.356Z,99983.16
2023-03-20T06:49:28.296Z,99975.91
2023-03-20T06:51:59.979Z,99974.78
2023-03-20T06:54:28.095Z,99968.81
2023-03-20T06:56:55.973Z,99974.94
2023-03-20T06:59:32.667Z,99977.91
2023-03-20T07:02:11.800Z,99982.88
2023-03-20T07:04:41.223Z,99979.94
2023-03-20T07:07:11.626Z,99982.31
2023-03-20T07:09:39.714Z,99978.31
2023-03-20T07:12:14.514Z,99983.66
2023-03-20T07:14:44.730Z,99979.56
2023-03-20T07:17:14.913Z,99986.91
2023-03-20T07:19:51.679Z,99993.81
2023-03-20T07:22:29.623Z,99981.56
2023-03-20T07:27:46.610Z,99975.94
2023-03-20T07:30:16.698Z,99979.34
2023-03-20T07:32:46.207Z,99983.03
2023-03-20T07:35:14.780Z,99978.41
2023-03-20T07:40:18.169Z,99974.28
2023-03-20T07:42:48.561Z,99971.31
2023-03-20T07:45:30.648Z,99978.31
2023-03-20T07:48:06.959Z,99986.84
2023-03-20T07:50:41.597Z,99979.78
2023-03-20T07:53:16.930Z,99980.28
2023-03-20T07:55:49.572Z,99988.78
2023-03-20T07:58:17.827Z,99986.00
2023-03-20T08:00:50.573Z,99988.78
2023-03-20T08:03:25.419Z,99991.31
2023-03-20T08:05:55.591Z,99986.81
2023-03-20T08:08:24.535Z,99988.28
2023-03-20T08:10:54.129Z,99988.75
2023-03-20T08:13:22.338Z,99992.38
2023-03-20T08:16:06.286Z,99990.62
2023-03-20T08:18:35.798Z,99988.22
2023-03-20T08:21:11.202Z,99979.69
2023-03-20T08:23:42.962Z,99980.06
2023-03-20T08:26:10.660Z,99977.38
2023-03-20T08:28:47.550Z,99981.53
2023-03-20T08:31:20.692Z,99986.72
2023-03-20T08:33:51.158Z,99979.75
2023-03-20T08:38:56.221Z,99991.13
2023-03-20T08:41:24.802Z,99984.31
2023-03-20T08:43:53.099Z,99977.56
2023-03-20T08:46:21.634Z,99986.25
2023-03-20T08:48:53.716Z,99978.56
2023-03-20T08:51:23.872Z,99986.91
2023-03-20T08:53:52.835Z,99987.44
2023-03-20T08:56:20.808Z,99989.00
2023-03-20T08:58:56.279Z,99993.06
2023-03-20T09:01:32.595Z,99995.38
2023-03-20T09:06:47.869Z,100002.81
2023-03-20T09:09:15.979Z,99998.63
2023-03-20T09:11:44.042Z,100000.37
2023-03-20T09:14:19.334Z,99991.19
2023-03-20T09:16:48.871Z,100001.53
2023-03-20T09:19:18.841Z,99995.13
2023-03-20T09:21:49.964Z,99995.69
2023-03-20T09:24:19.817Z,99997.25
2023-03-20T09:26:48.035Z,99994.53
2023-03-20T09:29:15.851Z,99998.97
2023-03-20T09:31:46.051Z,99992.22
2023-03-20T09:34:14.402Z,99996.88
2023-03-20T09:36:45.910Z,99991.44
2023-03-20T09:39:20.650Z,99997.78
2023-03-20T09:41:57.037Z,99986.00
2023-03-20T09:44:36.862Z,99980.19
2023-03-20T09:47:35.771Z,99988.19
2023-03-20T09:50:23.848Z,99987.47
2023-03-20T09:52:56.695Z,99985.47
2023-03-20T09:55:32.834Z,99987.47
2023-03-20T09:58:05.225Z,99993.09
2023-03-20T10:00:35.821Z,99987.41
2023-03-20T10:03:32.907Z,99989.00
2023-03-20T10:06:09.862Z,99987.38
2023-03-20T10:08:39.867Z,99991.56
2023-03-20T10:11:14.694Z,99980.00
2023-03-20T10:13:55.836Z,99987.44
2023-03-20T10:16:41.865Z,99988.28
2023-03-20T10:19:21.472Z,99988.66
2023-03-20T10:22:04.081Z,99984.78
2023-03-20T10:24:37.508Z,99985.78
2023-03-20T10:27:34.599Z,99979.16
2023-03-20T10:30:39.805Z,99967.44
2023-03-20T10:33:26.565Z,99975.31
2023-03-20T10:36:26.149Z,99959.31
2023-03-20T10:39:16.289Z,99969.87
2023-03-20T10:42:04.637Z,99968.38
2023-03-20T10:44:40.717Z,99972.94
2023-03-20T10:47:13.819Z,99972.81
2023-03-20T10:49:53.963Z,99967.44
2023-03-20T10:55:19.183Z,99962.59
2023-03-20T10:57:54.838Z,99959.78
2023-03-20T11:00:26.000Z,99960.97
2023-03-20T11:02:56.707Z,99953.41
2023-03-20T11:05:32.882Z,99948.66
2023-03-20T11:08:14.836Z,99949.59
2023-03-20T11:10:45.082Z,99942.75
2023-03-20T11:13:28.610Z,99937.44
2023-03-20T11:15:57.694Z,99942.00
2023-03-20T11:18:28.063Z,99937.88
2023-03-20T11:21:09.218Z,99945.78
2023-03-20T11:23:42.063Z,99944.41
2023-03-20T11:26:28.653Z,99937.56
2023-03-20T11:28:59.845Z,99936.19
2023-03-20T11:31:39.578Z,99938.34
2023-03-20T11:34:14.253Z,99926.00
2023-03-20T11:37:13.012Z,99925.91
2023-03-20T11:39:59.724Z,99933.94
2023-03-20T11:42:31.124Z,99938.84
2023-03-20T11:45:02.146Z,99927.88
2023-03-20T11:47:36.698Z,99929.22
2023-03-20T11:50:26.943Z,99927.41
2023-03-20T11:52:57.772Z,99934.19
2023-03-20T11:55:36.710Z,99932.84
2023-03-20T11:58:06.196Z,99930.59
2023-03-20T12:00:40.204Z,99921.22
2023-03-20T12:03:36.703Z,99923.78
2023-03-20T12:06:19.579Z,99921.66
2023-03-20T12:08:56.722Z,99927.47
2023-03-20T12:11:41.674Z,99928.06
2023-03-20T12:14:29.796Z,99926.75
2023-03-20T12:17:11.221Z,99925.06
2023-03-20T12:19:44.634Z,99916.66
2023-03-20T12:22:52.670Z,99911.53
2023-03-20T12:26:00.754Z,99904.09
2023-03-20T12:28:39.067Z,99905.81
2023-03-20T12:31:31.813Z,99912.50
2023-03-20T12:34:05.959Z,99902.56
2023-03-20T12:36:46.310Z,99911.44
2023-03-20T12:39:24.635Z,99904.28
2023-03-20T12:42:24.426Z,99901.31
2023-03-20T12:45:06.015Z,99901.31
2023-03-20T12:48:08.620Z,99900.28
2023-03-20T12:50:43.762Z,99896.97
2023-03-20T12:53:38.803Z,99894.00
2023-03-20T12:56:46.802Z,99888.19
2023-03-20T12:59:58.593Z,99887.78
2023-03-20T13:02:29.787Z,99878.22
2023-03-20T13:05:10.605Z,99879.94
2023-03-20T13:07:50.001Z,99885.28
2023-03-20T13:10:43.210Z,99880.53
2023-03-20T13:13:56.657Z,99868.47
2023-03-20T13:16:48.209Z,99867.88
2023-03-20T13:19:43.403Z,99870.69
2023-03-20T13:22:21.593Z,99863.59
2023-03-20T13:25:32.810Z,99856.19
2023-03-20T13:28:03.384Z,99858.16
2023-03-20T13:30:35.984Z,99860.56
2023-03-20T13:33:42.396Z,99860.62
2023-03-20T13:36:33.608Z,99852.97
2023-03-20T13:39:30.629Z,99857.22
2023-03-20T13:42:09.625Z,99850.56
2023-03-20T13:44:44.903Z,99847.16
2023-03-20T13:47:24.257Z,99849.25
2023-03-20T13:50:17.854Z,99852.12
2023-03-20T13:53:02.915Z,99843.34
2023-03-20T13:55:43.733Z,99847.50
2023-03-20T13:58:37.944Z,99856.16
2023-03-20T14:01:20.660Z,99850.38
2023-03-20T14:03:50.094Z,99851.88
2023-03-20T14:06:50.700Z,99847.28
2023-03-20T14:09:33.766Z,99840.84
2023-03-20T14:12:11.088Z,99844.34
2023-03-20T14:14:41.795Z,99837.78
2023-03-20T14:17:33.833Z,99838.47
2023-03-20T14:20:25.709Z,99831.41
2023-03-20T14:22:58.652Z,99836.22
2023-03-20T14:25:32.996Z,99831.03
2023-03-20T14:28:11.057Z,99829.62
2023-03-20T14:30:49.652Z,99821.97
2023-03-20T14:33:30.775Z,99824.78
2023-03-20T14:36:24.100Z,99823.72
2023-03-20T14:39:07.117Z,99835.22
2023-03-20T14:42:03.617Z,99833.72
2023-03-20T14:44:50.712Z,99835.63
2023-03-20T14:47:43.414Z,99829.25
2023-03-20T14:50:35.046Z,99832.75
2023-03-20T14:53:22.983Z,99830.31
2023-03-20T14:55:58.579Z,99830.16
2023-03-20T15:01:43.736Z,99823.66
2023-03-20T15:04:21.861Z,99816.47
2023-03-20T15:07:15.728Z,99821.62
2023-03-20T15:09:47.931Z,99824.69
2023-03-20T15:12:20.936Z,99822.62
2023-03-20T15:14:57.429Z,99821.97
2023-03-20T15:17:29.019Z,99811.50
2023-03-20T15:20:19.542Z,99810.75
2023-03-20T15:23:02.914Z,99817.31
2023-03-20T15:25:41.079Z,99819.00
2023-03-20T15:28:23.856Z,99817.87
2023-03-20T15:30:58.588Z,99819.09
2023-03-20T15:33:37.146Z,99821.56
2023-03-20T15:36:19.675Z,99820.31
2023-03-20T15:38:50.836Z,99821.59
2023-03-20T15:41:34.624Z,99816.94
2023-03-20T15:44:27.859Z,99816.63
2023-03-20T15:47:12.008Z,99814.03
2023-03-20T15:52:41.659Z,99808.28
2023-03-20T15:55:23.545Z,99813.09
2023-03-20T15:58:01.167Z,99805.03
2023-03-20T16:00:40.055Z,99808.16
2023-03-20T16:03:19.467Z,99807.50
2023-03-20T16:06:01.391Z,99816.88
2023-03-20T16:08:41.688Z,99809.81
2023-03-20T16:11:22.773Z,99812.91
2023-03-20T16:14:10.817Z,99822.38
2023-03-20T16:16:48.873Z,99821.31
2023-03-20T16:19:22.135Z,99828.69
2023-03-20T16:21:57.929Z,99820.53
2023-03-20T16:24:50.657Z,99835.84
2023-03-20T16:27:38.854Z,99844.41
2023-03-20T16:30:17.301Z,99841.25
2023-03-20T16:32:54.978Z,99843.97
2023-03-20T16:35:59.862Z,99835.28
2023-03-20T16:38:40.841Z,99840.56
2023-03-20T16:41:25.835Z,99830.59
2023-03-20T16:43:58.661Z,99849.09
2023-03-20T16:46:58.384Z,99843.63
2023-03-20T16:49:32.600Z,99849.56
2023-03-20T16:52:06.571Z,99847.87
2023-03-20T16:54:39.915Z,99850.91
2023-03-20T16:57:15.727Z,99855.66
2023-03-20T17:02:44.656Z,99857.47
2023-03-20T17:05:20.780Z,99857.00
2023-03-20T17:07:58.948Z,99856.84
2023-03-20T17:10:32.704Z,99866.09
2023-03-20T17:13:14.366Z,99867.31
2023-03-20T17:15:53.764Z,99873.88
2023-03-20T17:18:22.158Z,99870.91
2023-03-20T17:20:49.661Z,99869.44
2023-03-20T17:26:04.659Z,99874.53
2023-03-20T17:28:42.724Z,99879.28
2023-03-20T17:31:18.841Z,99875.09
2023-03-20T17:33:54.287Z,99876.00
2023-03-20T17:36:31.504Z,99867.91
2023-03-20T17:39:08.916Z,99867.47
2023-03-20T17:41:46.102Z,99873.91
2023-03-20T17:44:26.630Z,99880.75
2023-03-20T17:47:02.665Z,99881.16
2023-03-20T17:49:31.943Z,99886.91
2023-03-20T17:52:02.302Z,99888.19
2023-03-20T17:54:36.749Z,99886.59
2023-03-20T17:57:38.034Z,99899.41
2023-03-20T18:00:24.777Z,99898.69
2023-03-20T18:02:53.463Z,99898.22
2023-03-20T18:05:26.752Z,99898.50
2023-03-20T18:10:40.383Z,99900.91
2023-03-20T18:13:20.984Z,99896.59
2023-03-20T18:15:52.713Z,99894.50
2023-03-20T18:18:24.744Z,99903.88
2023-03-20T18:23:34.012Z,99899.72
2023-03-20T18:28:46.142Z,99903.94
2023-03-20T18:31:20.027Z,99911.94
2023-03-20T18:33:52.760Z,99908.25
2023-03-20T18:36:25.696Z,99912.81
2023-03-20T18:38:58.163Z,99914.25
2023-03-20T18:44:14.301Z,99914.78
2023-03-20T18:46:42.871Z,99916.09
2023-03-20T18:49:21.700Z,99915.03
2023-03-20T18:51:50.355Z,99923.16
2023-03-20T18:54:19.716Z,99921.06
2023-03-20T18:57:01.102Z,99917.72
2023-03-20T18:59:31.120Z,99916.47
2023-03-20T19:04:35.842Z,99919.38
2023-03-20T19:07:09.840Z,99925.25
2023-03-20T19:09:39.988Z,99917.63
2023-03-20T19:12:19.432Z,99928.66
2023-03-20T19:15:04.876Z,99920.78
2023-03-20T19:17:32.791Z,99923.69
2023-03-20T19:20:07.675Z,99919.03
2023-03-20T19:22:40.477Z,99923.06
2023-03-20T19:25:10.862Z,99918.47
2023-03-20T19:27:50.767Z,99918.28
2023-03-20T19:30:39.156Z,99922.19
2023-03-20T19:33:10.676Z,99919.47
2023-03-20T19:35:58.883Z,99924.31
2023-03-20T19:38:42.774Z,99930.66
2023-03-20T19:43:58.758Z,99928.12
2023-03-20T19:46:45.260Z,99929.66
2023-03-20T19:52:05.342Z,99933.94
2023-03-20T19:54:34.712Z,99930.34
2023-03-20T19:57:04.603Z,99939.06
2023-03-20T19:59:33.024Z,99928.97
2023-03-20T20:02:06.450Z,99936.66
2023-03-20T20:04:36.841Z,99940.78
2023-03-20T20:07:56.188Z,99934.88
2023-03-20T20:10:14.112Z,99936.50
2023-03-20T20:12:42.206Z,99932.31
2023-03-20T20:15:21.041Z,99934.34
2023-03-20T20:20:30.164Z,99922.88
2023-03-20T20:25:53.894Z,99922.34
2023-03-20T20:28:23.690Z,99923.75
2023-03-20T20:30:56.937Z,99925.31
2023-03-20T20:33:28.850Z,99919.94
2023-03-20T20:36:57.613Z,99922.84
2023-03-20T20:39:06.120Z,99922.88
2023-03-20T20:41:42.616Z,99920.84
2023-03-20T20:44:16.358Z,99923.56
2023-03-20T20:46:47.072Z,99925.75
2023-03-20T20:49:29.067Z,99915.19
2023-03-20T20:52:01.621Z,99914.03
2023-03-20T20:54:36.140Z,99918.34
2023-03-20T20:57:05.733Z,99920.47
2023-03-20T20:59:37.564Z,99918.34
2023-03-20T21:02:10.864Z,99916.97
2023-03-20T21:04:44.216Z,99918.50
2023-03-20T21:09:54.898Z,99917.09
2023-03-20T21:12:34.670Z,99907.53
2023-03-20T21:15:08.878Z,99921.75
2023-03-20T21:17:50.446Z,99918.41
2023-03-20T21:20:29.823Z,99919.34
2023-03-20T21:22:58.660Z,99915.25
2023-03-20T21:25:40.001Z,99909.87
2023-03-20T21:28:26.668Z,99913.00
2023-03-20T21:31:22.764Z,99918.09
2023-03-20T21:33:46.218Z,99916.75
2023-03-20T21:36:20.035Z,99918.16
2023-03-20T21:41:41.157Z,99922.28
2023-03-20T21:44:18.068Z,99921.41
2023-03-20T21:58:48.798Z,99926.41
2023-03-20T22:01:39.740Z,99924.97
2023-03-20T22:05:02.172Z,99924.59
2023-03-20T22:10:26.549Z,99926.06
2023-03-20T22:16:12.898Z,99929.31
2023-03-20T22:27:35.128Z,99922.28
2023-03-20T22:30:12.647Z,99917.66
2023-03-20T22:33:03.516Z,99918.19
2023-03-20T22:38:47.301Z,99910.81
2023-03-20T22:46:49.982Z,99909.75
2023-03-20T22:49:17.863Z,99907.88
2023-03-20T22:52:04.777Z,99914.22
2023-03-20T22:54:36.076Z,99913.19
2023-03-20T22:57:04.369Z,99905.50
2023-03-20T22:59:36.361Z,99912.97
2023-03-20T23:02:04.300Z,99907.19
2023-03-20T23:04:32.897Z,99908.72
2023-03-20T23:07:01.824Z,99914.31
2023-03-20T23:09:30.672Z,99913.19
2023-03-20T23:11:58.214Z,99910.66
2023-03-20T23:14:28.524Z,99909.44
2023-03-20T23:17:00.733Z,99910.91
2023-03-20T23:19:31.982Z,99915.06
2023-03-20T23:22:00.864Z,99911.66
2023-03-20T23:24:30.208Z,99911.06
2023-03-20T23:26:58.908Z,99908.47
2023-03-20T23:29:26.728Z,99909.50
2023-03-20T23:31:55.162Z,99911.81
2023-03-20T23:34:23.135Z,99909.75
2023-03-20T23:36:51.808Z,99906.34
2023-03-20T23:39:19.983Z,99907.66
2023-03-20T23:42:14.490Z,99901.03
2023-03-20T23:44:44.084Z,99899.66
2023-03-20T23:47:20.730Z,99901.81
2023-03-20T23:49:49.801Z,99898.44
2023-03-20T23:52:17.904Z,99896.56
2023-03-20T23:54:46.071Z,99902.87
2023-03-20T23:57:14.144Z,99898.53
2023-03-20T23:59:43.018Z,99895.22
